createdAt,value
2023-05-05T00:00:30.462Z,84.55
2023-05-05T00:03:01.236Z,84.43
2023-05-05T00:05:32.699Z,84.43
2023-05-05T00:08:03.801Z,84.47
2023-05-05T00:10:34.654Z,84.40
2023-05-05T00:13:08.127Z,84.30
2023-05-05T00:15:39.078Z,84.13
2023-05-05T00:18:09.762Z,84.40
2023-05-05T00:20:40.637Z,84.60
2023-05-05T00:23:11.520Z,84.64
2023-05-05T00:25:42.582Z,84.68
2023-05-05T00:28:16.206Z,84.59
2023-05-05T00:30:47.271Z,84.70
2023-05-05T00:33:18.270Z,84.64
2023-05-05T00:35:50.400Z,84.44
2023-05-05T00:38:21.140Z,84.56
2023-05-05T00:40:51.994Z,84.50
2023-05-05T00:43:25.307Z,84.49
2023-05-05T00:46:02.211Z,84.67
2023-05-05T00:48:33.720Z,84.47
2023-05-05T00:51:09.028Z,84.38
2023-05-05T00:53:41.706Z,84.54
2023-05-05T00:56:13.201Z,84.30
2023-05-05T00:58:47.398Z,84.48
2023-05-05T01:01:18.545Z,84.66
2023-05-05T01:03:49.341Z,84.51
2023-05-05T01:06:35.753Z,84.52
2023-05-05T01:09:14.984Z,84.38
2023-05-05T01:11:52.953Z,84.39
2023-05-05T01:14:35.469Z,84.41
2023-05-05T01:17:17.493Z,84.42
2023-05-05T01:20:11.579Z,84.43
2023-05-05T01:22:48.458Z,84.64
2023-05-05T01:25:43.258Z,84.72
2023-05-05T01:28:31.170Z,84.56
2023-05-05T01:31:26.857Z,84.45
2023-05-05T01:34:07.426Z,84.50
2023-05-05T01:36:42.611Z,84.53
2023-05-05T01:39:18.800Z,84.36
2023-05-05T01:41:52.372Z,84.40
2023-05-05T01:44:23.405Z,84.43
2023-05-05T01:46:56.391Z,84.41
2023-05-05T01:49:30.620Z,84.52
2023-05-05T01:52:04.067Z,84.44
2023-05-05T01:54:37.819Z,84.52
2023-05-05T01:57:10.629Z,84.49
2023-05-05T01:59:42.824Z,84.50
2023-05-05T02:02:16.522Z,84.32
2023-05-05T02:04:52.265Z,84.22
2023-05-05T02:07:23.953Z,84.02
2023-05-05T02:09:56.144Z,84.04
2023-05-05T02:12:26.953Z,84.17
2023-05-05T02:15:00.923Z,84.24
2023-05-05T02:17:33.289Z,84.39
2023-05-05T02:20:07.984Z,84.36
2023-05-05T02:22:38.880Z,84.39
2023-05-05T02:25:11.043Z,84.10
2023-05-05T02:27:46.229Z,84.41
2023-05-05T02:30:20.025Z,84.29
2023-05-05T02:32:56.672Z,84.39
2023-05-05T02:35:38.836Z,84.39
2023-05-05T02:38:17.647Z,84.49
2023-05-05T02:40:53.378Z,84.50
2023-05-05T02:43:27.846Z,84.46
2023-05-05T02:45:59.401Z,84.46
2023-05-05T02:48:32.031Z,84.56
2023-05-05T02:51:08.576Z,84.44
2023-05-05T02:53:42.128Z,84.71
2023-05-05T02:56:25.653Z,84.58
2023-05-05T02:59:12.865Z,84.53
2023-05-05T03:01:58.002Z,84.68
2023-05-05T03:04:38.173Z,84.54
2023-05-05T03:07:16.381Z,84.63
2023-05-05T03:09:59.186Z,84.58
2023-05-05T03:12:36.829Z,84.51
2023-05-05T03:15:18.612Z,84.46
2023-05-05T03:17:50.341Z,84.45
2023-05-05T03:20:21.591Z,84.52
2023-05-05T03:22:56.565Z,84.66
2023-05-05T03:25:44.835Z,84.68
2023-05-05T03:28:21.622Z,84.66
2023-05-05T03:30:52.337Z,84.58
2023-05-05T03:33:23.354Z,84.71
2023-05-05T03:35:54.802Z,84.62
2023-05-05T03:38:28.172Z,84.62
2023-05-05T03:40:59.092Z,84.56
2023-05-05T03:43:30.296Z,84.39
2023-05-05T03:46:01.722Z,84.43
2023-05-05T03:48:32.673Z,84.75
2023-05-05T03:51:03.536Z,84.49
2023-05-05T03:53:39.213Z,84.59
2023-05-05T03:56:11.918Z,84.43
2023-05-05T03:58:42.677Z,84.59
2023-05-05T04:01:13.449Z,84.54
2023-05-05T04:03:44.233Z,84.74
2023-05-05T04:06:15.043Z,84.43
2023-05-05T04:08:48.436Z,84.41
2023-05-05T04:11:19.205Z,84.44
2023-05-05T04:13:50.322Z,84.23
2023-05-05T04:16:22.526Z,84.27
2023-05-05T04:18:53.450Z,84.16
2023-05-05T04:21:24.039Z,84.22
2023-05-05T04:23:58.132Z,84.43
2023-05-05T04:26:29.529Z,84.55
2023-05-05T04:29:00.912Z,84.56
2023-05-05T04:31:32.441Z,84.64
2023-05-05T04:34:03.766Z,84.60
2023-05-05T04:36:34.367Z,84.66
2023-05-05T04:39:07.826Z,84.54
2023-05-05T04:41:40.072Z,84.73
2023-05-05T04:44:11.639Z,84.77
2023-05-05T04:46:42.481Z,84.90
2023-05-05T04:49:13.249Z,84.70
2023-05-05T04:51:45.108Z,84.51
2023-05-05T04:54:18.490Z,84.46
2023-05-05T04:56:49.077Z,84.39
2023-05-05T04:59:19.949Z,84.54
2023-05-05T05:01:50.692Z,84.08
2023-05-05T05:04:22.065Z,84.31
2023-05-05T05:06:53.045Z,84.17
2023-05-05T05:09:26.351Z,84.01
2023-05-05T05:11:58.031Z,83.98
2023-05-05T05:14:29.183Z,84.09
2023-05-05T05:16:59.817Z,83.86
2023-05-05T05:19:30.550Z,83.57
2023-05-05T05:22:01.268Z,83.64
2023-05-05T05:24:36.637Z,83.70
2023-05-05T05:27:09.968Z,83.60
2023-05-05T05:29:43.936Z,83.69
2023-05-05T05:32:14.792Z,83.61
2023-05-05T05:34:45.896Z,83.37
2023-05-05T05:37:17.046Z,83.37
2023-05-05T05:39:54.830Z,83.06
2023-05-05T05:42:27.148Z,82.90
2023-05-05T05:44:58.990Z,83.04
2023-05-05T05:47:30.084Z,83.04
2023-05-05T05:50:01.807Z,82.92
2023-05-05T05:52:33.382Z,82.77
2023-05-05T05:55:07.598Z,82.92
2023-05-05T05:57:38.563Z,82.99
2023-05-05T06:00:12.896Z,82.90
2023-05-05T06:02:45.579Z,83.03
2023-05-05T06:05:20.127Z,83.15
2023-05-05T06:07:53.254Z,83.06
2023-05-05T06:10:28.715Z,83.22
2023-05-05T06:13:09.869Z,83.23
2023-05-05T06:15:44.871Z,83.15
2023-05-05T06:18:17.446Z,83.23
2023-05-05T06:20:48.200Z,83.32
2023-05-05T06:23:19.258Z,83.10
2023-05-05T06:25:58.233Z,83.19
2023-05-05T06:28:28.966Z,83.01
2023-05-05T06:30:59.701Z,82.24
2023-05-05T06:33:30.407Z,82.25
2023-05-05T06:36:01.005Z,82.16
2023-05-05T06:38:31.717Z,82.44
2023-05-05T06:41:05.015Z,82.39
2023-05-05T06:43:36.001Z,82.52
2023-05-05T06:46:11.203Z,82.75
2023-05-05T06:48:41.914Z,82.53
2023-05-05T06:51:12.960Z,82.24
2023-05-05T06:53:43.611Z,82.27
2023-05-05T06:56:16.859Z,82.23
2023-05-05T06:58:47.503Z,81.72
2023-05-05T07:01:18.168Z,81.93
2023-05-05T07:03:49.176Z,82.38
2023-05-05T07:06:19.773Z,81.90
2023-05-05T07:08:50.585Z,81.35
2023-05-05T07:11:23.762Z,80.71
2023-05-05T07:13:54.389Z,80.31
2023-05-05T07:16:25.154Z,79.66
2023-05-05T07:18:55.867Z,79.33
2023-05-05T07:21:26.961Z,79.13
2023-05-05T07:23:57.640Z,74.87
2023-05-05T07:26:30.933Z,74.61
2023-05-05T07:29:01.885Z,73.19
2023-05-05T07:31:32.577Z,72.55
2023-05-05T07:34:03.205Z,71.16
2023-05-05T07:36:33.814Z,69.74
2023-05-05T07:39:04.392Z,68.55
2023-05-05T07:41:37.725Z,68.13
2023-05-05T07:44:08.589Z,66.65
2023-05-05T07:46:39.270Z,64.49
2023-05-05T07:49:09.905Z,64.11
2023-05-05T07:51:40.830Z,64.01
2023-05-05T07:54:11.706Z,64.54
2023-05-05T07:56:45.051Z,64.25
2023-05-05T07:59:15.801Z,64.31
2023-05-05T08:01:46.613Z,62.88
2023-05-05T08:04:17.305Z,62.26
2023-05-05T08:06:48.052Z,61.95
2023-05-05T08:09:18.690Z,60.99
2023-05-05T08:11:52.041Z,60.67
2023-05-05T08:14:22.698Z,60.85
2023-05-05T08:16:53.426Z,60.15
2023-05-05T08:19:28.935Z,58.98
2023-05-05T08:22:01.603Z,58.28
2023-05-05T08:24:32.422Z,58.00
2023-05-05T08:27:05.799Z,57.10
2023-05-05T08:29:36.372Z,56.56
2023-05-05T08:32:07.331Z,56.49
2023-05-05T08:34:37.980Z,55.35
2023-05-05T08:37:08.728Z,54.34
2023-05-05T08:39:39.417Z,54.26
2023-05-05T08:42:19.632Z,53.69
2023-05-05T08:44:58.824Z,53.02
2023-05-05T08:47:30.429Z,52.79
2023-05-05T08:50:03.488Z,53.61
2023-05-05T08:52:41.565Z,54.63
2023-05-05T08:55:18.418Z,54.67
2023-05-05T08:57:55.233Z,55.28
2023-05-05T09:00:27.472Z,55.92
2023-05-05T09:03:00.431Z,56.10
2023-05-05T09:05:31.504Z,56.28
2023-05-05T09:08:02.699Z,56.03
2023-05-05T09:10:35.172Z,56.00
2023-05-05T09:13:10.430Z,55.90
2023-05-05T09:15:42.428Z,55.85
2023-05-05T09:18:13.477Z,56.61
2023-05-05T09:20:44.708Z,57.24
2023-05-05T09:23:17.036Z,56.42
2023-05-05T09:25:50.014Z,54.99
2023-05-05T09:28:23.393Z,55.15
2023-05-05T09:30:54.128Z,54.33
2023-05-05T09:33:33.170Z,54.61
2023-05-05T09:36:03.873Z,54.75
2023-05-05T09:38:34.777Z,54.81
2023-05-05T09:41:05.690Z,54.73
2023-05-05T09:43:54.744Z,55.06
2023-05-05T09:46:27.786Z,55.56
2023-05-05T09:48:58.682Z,55.07
2023-05-05T09:51:32.429Z,55.23
2023-05-05T09:54:03.187Z,55.21
2023-05-05T09:56:43.676Z,54.75
2023-05-05T09:59:17.090Z,53.65
2023-05-05T10:01:49.085Z,53.88
2023-05-05T10:04:28.533Z,53.50
2023-05-05T10:07:00.627Z,52.57
2023-05-05T10:09:32.045Z,52.80
2023-05-05T10:12:03.733Z,51.93
2023-05-05T10:14:38.959Z,51.17
2023-05-05T10:17:10.291Z,50.20
2023-05-05T10:19:42.551Z,51.22
2023-05-05T10:22:13.933Z,50.94
2023-05-05T10:24:50.595Z,51.50
2023-05-05T10:27:23.650Z,51.91
2023-05-05T10:30:08.954Z,52.12
2023-05-05T10:32:59.337Z,52.36
2023-05-05T10:35:38.820Z,52.47
2023-05-05T10:38:11.908Z,52.70
2023-05-05T10:40:46.968Z,52.90
2023-05-05T10:43:18.325Z,52.89
2023-05-05T10:45:52.310Z,53.11
2023-05-05T10:48:30.853Z,53.20
2023-05-05T10:51:09.048Z,53.60
2023-05-05T10:53:45.898Z,53.66
2023-05-05T10:56:26.880Z,52.97
2023-05-05T10:59:00.228Z,52.82
2023-05-05T11:01:36.763Z,53.24
2023-05-05T11:04:22.018Z,53.36
2023-05-05T11:07:24.440Z,53.52
2023-05-05T11:10:02.284Z,53.54
2023-05-05T11:13:11.965Z,53.63
2023-05-05T11:15:42.884Z,53.69
2023-05-05T11:18:36.599Z,53.38
2023-05-05T11:21:18.445Z,53.70
2023-05-05T11:23:51.160Z,53.55
2023-05-05T11:26:42.565Z,53.91
2023-05-05T11:29:15.804Z,53.70
2023-05-05T11:31:48.162Z,53.88
2023-05-05T11:34:30.055Z,54.09
2023-05-05T11:37:04.684Z,54.47
2023-05-05T11:39:54.225Z,54.41
2023-05-05T11:42:27.782Z,54.96
2023-05-05T11:45:01.525Z,55.08
2023-05-05T11:47:36.614Z,55.28
2023-05-05T11:50:23.692Z,55.50
2023-05-05T11:52:54.397Z,55.42
2023-05-05T11:55:25.552Z,55.28
2023-05-05T11:57:56.598Z,55.80
2023-05-05T12:00:39.130Z,55.88
2023-05-05T12:03:09.881Z,55.91
2023-05-05T12:05:40.803Z,56.21
2023-05-05T12:08:11.982Z,56.18
2023-05-05T12:10:42.783Z,56.32
2023-05-05T12:13:21.750Z,56.81
2023-05-05T12:15:55.182Z,57.17
2023-05-05T12:18:25.890Z,57.14
2023-05-05T12:20:56.750Z,57.60
2023-05-05T12:23:30.371Z,57.71
2023-05-05T12:26:01.272Z,58.07
2023-05-05T12:28:46.995Z,58.38
2023-05-05T12:31:20.241Z,58.84
2023-05-05T12:33:51.689Z,58.82
2023-05-05T12:36:22.634Z,59.21
2023-05-05T12:38:53.347Z,59.41
2023-05-05T12:41:24.323Z,59.63
2023-05-05T12:43:59.353Z,59.50
2023-05-05T12:46:32.888Z,59.46
2023-05-05T12:49:05.595Z,59.66
2023-05-05T12:51:37.751Z,59.73
2023-05-05T12:54:10.111Z,59.94
2023-05-05T12:56:42.376Z,60.20
2023-05-05T12:59:14.632Z,60.62
2023-05-05T13:01:55.394Z,60.39
2023-05-05T13:04:27.618Z,60.78
2023-05-05T13:07:14.505Z,61.02
2023-05-05T13:09:45.754Z,61.16
2023-05-05T13:12:16.791Z,61.60
2023-05-05T13:14:48.038Z,61.78
2023-05-05T13:17:21.423Z,61.62
2023-05-05T13:19:52.492Z,61.55
2023-05-05T13:22:23.299Z,62.70
2023-05-05T13:24:54.095Z,62.48
2023-05-05T13:27:24.952Z,62.74
2023-05-05T13:29:55.682Z,63.34
2023-05-05T13:32:29.136Z,63.49
2023-05-05T13:34:59.925Z,63.32
2023-05-05T13:37:30.939Z,63.74
2023-05-05T13:40:01.730Z,63.26
2023-05-05T13:42:34.473Z,63.08
2023-05-05T13:45:05.855Z,63.47
2023-05-05T13:47:39.624Z,63.51
2023-05-05T13:50:11.655Z,63.74
2023-05-05T13:52:42.612Z,63.37
2023-05-05T13:55:13.561Z,63.06
2023-05-05T13:57:46.813Z,62.15
2023-05-05T14:00:19.350Z,62.27
2023-05-05T14:02:52.845Z,62.39
2023-05-05T14:05:23.623Z,62.02
2023-05-05T14:07:54.552Z,62.28
2023-05-05T14:10:26.546Z,58.64
2023-05-05T14:12:57.625Z,58.36
2023-05-05T14:15:28.444Z,62.88
2023-05-05T14:18:02.631Z,66.04
2023-05-05T14:20:33.376Z,69.53
2023-05-05T14:23:04.460Z,73.00
2023-05-05T14:25:35.478Z,76.16
2023-05-05T14:28:06.407Z,79.01
2023-05-05T14:30:37.197Z,80.19
2023-05-05T14:33:10.595Z,81.15
2023-05-05T14:35:41.429Z,81.29
2023-05-05T14:38:12.471Z,83.25
2023-05-05T14:40:43.310Z,83.60
2023-05-05T14:43:13.994Z,84.82
2023-05-05T14:45:44.733Z,86.34
2023-05-05T14:48:18.499Z,87.77
2023-05-05T14:50:50.230Z,87.83
2023-05-05T14:53:22.117Z,89.38
2023-05-05T14:55:52.782Z,91.38
2023-05-05T14:58:24.906Z,94.25
2023-05-05T15:00:55.911Z,97.68
2023-05-05T15:03:30.136Z,93.47
2023-05-05T15:06:01.450Z,90.07
2023-05-05T15:08:32.116Z,90.04
2023-05-05T15:11:02.938Z,90.64
2023-05-05T15:13:33.863Z,91.08
2023-05-05T15:16:04.624Z,92.75
2023-05-05T15:18:38.704Z,92.91
2023-05-05T15:21:09.671Z,93.75
2023-05-05T15:23:40.441Z,94.50
2023-05-05T15:26:14.248Z,94.64
2023-05-05T15:28:45.036Z,96.36
2023-05-05T15:31:15.979Z,97.70
2023-05-05T15:33:51.772Z,98.41
2023-05-05T15:36:24.470Z,97.06
2023-05-05T15:38:55.297Z,96.48
2023-05-05T15:41:27.545Z,97.02
2023-05-05T15:43:58.332Z,97.78
2023-05-05T15:46:29.262Z,97.50
2023-05-05T15:49:02.713Z,97.77
2023-05-05T15:51:33.530Z,97.78
2023-05-05T15:54:04.235Z,97.95
2023-05-05T15:56:35.936Z,98.30
2023-05-05T15:59:06.920Z,98.07
2023-05-05T16:01:38.816Z,98.39
2023-05-05T16:04:12.593Z,98.73
2023-05-05T16:06:43.447Z,98.30
2023-05-05T16:09:14.123Z,98.74
2023-05-05T16:11:44.873Z,98.77
2023-05-05T16:14:15.570Z,100.00
2023-05-05T16:16:46.341Z,100.00
2023-05-05T16:19:19.802Z,100.00
2023-05-05T16:21:50.675Z,100.00
2023-05-05T16:24:21.598Z,100.00
2023-05-05T16:26:52.552Z,100.00
2023-05-05T16:29:23.385Z,100.00
2023-05-05T16:31:54.323Z,98.96
2023-05-05T16:34:27.796Z,97.80
2023-05-05T16:36:58.718Z,96.81
2023-05-05T16:39:29.538Z,95.98
2023-05-05T16:42:00.326Z,95.42
2023-05-05T16:44:31.110Z,94.44
2023-05-05T16:47:01.840Z,93.78
2023-05-05T16:49:36.677Z,93.13
2023-05-05T16:52:07.923Z,92.48
2023-05-05T16:54:38.643Z,91.87
2023-05-05T16:57:09.467Z,91.35
2023-05-05T16:59:41.995Z,90.80
2023-05-05T17:02:13.174Z,90.38
2023-05-05T17:04:46.517Z,89.96
2023-05-05T17:07:17.328Z,89.61
2023-05-05T17:09:48.086Z,89.14
2023-05-05T17:12:18.966Z,88.72
2023-05-05T17:14:49.790Z,88.50
2023-05-05T17:17:21.047Z,86.29
2023-05-05T17:19:54.664Z,79.93
2023-05-05T17:22:25.806Z,80.53
2023-05-05T17:24:57.427Z,86.78
2023-05-05T17:27:30.822Z,91.26
2023-05-05T17:30:02.076Z,94.06
2023-05-05T17:32:36.211Z,96.47
2023-05-05T17:35:10.950Z,97.90
2023-05-05T17:37:42.561Z,98.67
2023-05-05T17:40:16.803Z,99.04
2023-05-05T17:42:48.242Z,99.06
2023-05-05T17:45:19.810Z,99.39
2023-05-05T17:47:51.697Z,99.69
2023-05-05T17:50:25.699Z,99.86
2023-05-05T17:52:59.988Z,99.83
2023-05-05T17:55:31.493Z,100.00
2023-05-05T17:58:02.461Z,100.00
2023-05-05T18:00:33.273Z,100.00
2023-05-05T18:03:04.582Z,95.99
2023-05-05T18:05:38.307Z,97.10
2023-05-05T18:08:09.587Z,98.99
2023-05-05T18:10:40.432Z,99.61
2023-05-05T18:13:11.309Z,99.79
2023-05-05T18:15:42.861Z,100.00
2023-05-05T18:18:13.922Z,100.00
2023-05-05T18:20:47.286Z,100.00
2023-05-05T18:23:18.219Z,100.00
2023-05-05T18:25:48.940Z,100.00
2023-05-05T18:28:20.629Z,100.00
2023-05-05T18:30:51.600Z,100.00
2023-05-05T18:33:22.359Z,100.00
2023-05-05T18:35:56.777Z,100.00
2023-05-05T18:38:27.617Z,99.34
2023-05-05T18:40:58.384Z,98.47
2023-05-05T18:43:29.237Z,97.80
2023-05-05T18:45:59.998Z,97.04
2023-05-05T18:48:30.925Z,96.30
2023-05-05T18:51:07.918Z,95.64
2023-05-05T18:53:38.834Z,94.87
2023-05-05T18:56:10.405Z,94.47
2023-05-05T18:58:41.183Z,94.09
2023-05-05T19:01:12.000Z,93.50
2023-05-05T19:03:42.928Z,93.08
2023-05-05T19:06:16.374Z,92.61
2023-05-05T19:08:47.427Z,92.31
2023-05-05T19:11:18.341Z,91.81
2023-05-05T19:13:49.278Z,91.44
2023-05-05T19:16:20.217Z,91.04
2023-05-05T19:18:51.140Z,90.75
2023-05-05T19:21:24.540Z,90.42
2023-05-05T19:23:55.400Z,90.19
2023-05-05T19:26:26.946Z,90.08
2023-05-05T19:28:57.865Z,89.85
2023-05-05T19:31:31.256Z,89.60
2023-05-05T19:34:08.776Z,89.41
2023-05-05T19:36:42.100Z,89.14
2023-05-05T19:39:15.319Z,88.98
2023-05-05T19:41:46.821Z,88.67
2023-05-05T19:44:17.689Z,88.51
2023-05-05T19:46:48.474Z,88.22
2023-05-05T19:49:19.417Z,87.99
2023-05-05T19:51:53.220Z,87.87
2023-05-05T19:54:24.853Z,87.93
2023-05-05T19:56:57.184Z,87.83
2023-05-05T19:59:28.260Z,87.78
2023-05-05T20:01:59.272Z,87.78
2023-05-05T20:04:30.355Z,87.64
2023-05-05T20:07:04.067Z,87.59
2023-05-05T20:09:34.886Z,87.53
2023-05-05T20:12:06.094Z,87.84
2023-05-05T20:14:37.385Z,87.07
2023-05-05T20:17:08.151Z,87.19
2023-05-05T20:19:38.989Z,87.08
2023-05-05T20:22:12.366Z,86.78
2023-05-05T20:24:43.311Z,86.82
2023-05-05T20:27:14.127Z,86.86
2023-05-05T20:29:45.085Z,86.95
2023-05-05T20:32:16.117Z,87.03
2023-05-05T20:34:46.804Z,86.86
2023-05-05T20:37:22.165Z,86.93
2023-05-05T20:39:54.039Z,86.88
2023-05-05T20:42:25.881Z,86.98
2023-05-05T20:44:56.685Z,86.85
2023-05-05T20:47:27.482Z,86.94
2023-05-05T20:49:58.234Z,86.83
2023-05-05T20:52:31.653Z,88.04
2023-05-05T20:55:02.524Z,90.40
2023-05-05T20:57:36.000Z,89.27
2023-05-05T21:00:07.571Z,88.93
2023-05-05T21:02:40.189Z,88.77
2023-05-05T21:05:12.165Z,89.01
2023-05-05T21:07:45.771Z,88.76
2023-05-05T21:10:16.526Z,88.49
2023-05-05T21:12:47.258Z,88.39
2023-05-05T21:15:18.243Z,88.15
2023-05-05T21:17:48.985Z,88.24
2023-05-05T21:20:20.207Z,88.69
2023-05-05T21:22:53.638Z,90.33
2023-05-05T21:25:25.308Z,90.37
2023-05-05T21:27:56.463Z,92.80
2023-05-05T21:30:27.389Z,93.15
2023-05-05T21:32:58.286Z,94.13
2023-05-05T21:35:29.031Z,94.01
2023-05-05T21:38:02.408Z,94.07
2023-05-05T21:40:33.191Z,94.69
2023-05-05T21:43:03.931Z,94.74
2023-05-05T21:45:35.016Z,95.54
2023-05-05T21:48:05.904Z,94.38
2023-05-05T21:50:37.462Z,95.33
2023-05-05T21:53:10.803Z,94.91
2023-05-05T21:55:48.352Z,94.96
2023-05-05T21:58:19.558Z,95.00
2023-05-05T22:00:52.714Z,94.57
2023-05-05T22:03:24.720Z,95.05
2023-05-05T22:05:55.572Z,95.59
2023-05-05T22:08:28.922Z,94.65
2023-05-05T22:10:59.787Z,95.20
2023-05-05T22:13:30.399Z,94.55
2023-05-05T22:16:01.234Z,95.86
2023-05-05T22:18:31.930Z,94.37
2023-05-05T22:21:02.686Z,96.23
2023-05-05T22:23:37.536Z,94.41
2023-05-05T22:26:08.777Z,95.02
2023-05-05T22:28:39.566Z,93.44
2023-05-05T22:31:10.376Z,94.38
2023-05-05T22:33:41.302Z,92.92
2023-05-05T22:36:13.384Z,93.49
2023-05-05T22:38:46.706Z,92.66
2023-05-05T22:41:17.439Z,93.95
2023-05-05T22:43:49.473Z,93.25
2023-05-05T22:46:20.255Z,94.67
2023-05-05T22:48:51.032Z,93.11
2023-05-05T22:51:22.095Z,94.26
2023-05-05T22:53:55.410Z,93.09
2023-05-05T22:56:26.291Z,94.34
2023-05-05T22:58:57.050Z,92.67
2023-05-05T23:01:27.934Z,93.09
2023-05-05T23:03:59.433Z,94.30
2023-05-05T23:06:30.672Z,93.88
2023-05-05T23:09:03.924Z,94.45
2023-05-05T23:11:34.653Z,93.92
2023-05-05T23:14:05.338Z,94.68
2023-05-05T23:16:36.280Z,93.45
2023-05-05T23:19:07.087Z,93.18
2023-05-05T23:21:49.303Z,92.21
2023-05-05T23:24:26.454Z,92.39
2023-05-05T23:26:58.509Z,91.75
2023-05-05T23:29:29.563Z,92.31
2023-05-05T23:32:01.070Z,91.52
2023-05-05T23:34:31.900Z,92.22
2023-05-05T23:37:04.611Z,91.65
2023-05-05T23:39:39.662Z,92.33
2023-05-05T23:42:10.469Z,91.55
2023-05-05T23:44:41.188Z,91.64
2023-05-05T23:47:12.010Z,92.21
2023-05-05T23:49:42.780Z,92.23
2023-05-05T23:52:14.528Z,92.37
2023-05-05T23:54:48.457Z,92.80
2023-05-05T23:57:19.245Z,92.51
2023-05-05T23:59:50.165Z,91.67
